sensor_id;sensor_type;location;lat;lon;timestamp;P1;durP1;ratioP1;P2;durP2;ratioP2
77168;SDS011;66281;45.114;20.730;2024-01-15T00:09:47;39.00;;;19.87;;
77168;SDS011;66281;45.114;20.730;2024-01-15T00:19:49;35.33;;;18.30;;
77168;SDS011;66281;45.114;20.730;2024-01-15T00:29:50;38.88;;;18.85;;
77168;SDS011;66281;45.114;20.730;2024-01-15T00:39:52;42.80;;;20.13;;
77168;SDS011;66281;45.114;20.730;2024-01-15T00:49:53;44.60;;;22.70;;
77168;SDS011;66281;45.114;20.730;2024-01-15T00:59:55;37.88;;;18.77;;
77168;SDS011;66281;45.114;20.730;2024-01-15T01:09:56;40.23;;;18.50;;
77168;SDS011;66281;45.114;20.730;2024-01-15T01:19:57;29.80;;;14.33;;
77168;SDS011;66281;45.114;20.730;2024-01-15T01:29:59;40.30;;;19.08;;
77168;SDS011;66281;45.114;20.730;2024-01-15T01:40:00;28.70;;;15.02;;
77168;SDS011;66281;45.114;20.730;2024-01-15T01:50:02;28.33;;;14.23;;
77168;SDS011;66281;45.114;20.730;2024-01-15T02:00:04;35.83;;;18.40;;
77168;SDS011;66281;45.114;20.730;2024-01-15T02:10:12;29.58;;;17.05;;
77168;SDS011;66281;45.114;20.730;2024-01-15T02:20:14;39.07;;;18.43;;
77168;SDS011;66281;45.114;20.730;2024-01-15T02:30:15;34.80;;;17.87;;
77168;SDS011;66281;45.114;20.730;2024-01-15T02:40:17;20.42;;;10.68;;
77168;SDS011;66281;45.114;20.730;2024-01-15T02:50:18;32.47;;;15.70;;
77168;SDS011;66281;45.114;20.730;2024-01-15T03:00:20;30.30;;;15.67;;
77168;SDS011;66281;45.114;20.730;2024-01-15T03:10:21;26.67;;;13.45;;
77168;SDS011;66281;45.114;20.730;2024-01-15T03:20:22;21.63;;;12.43;;
77168;SDS011;66281;45.114;20.730;2024-01-15T03:30:24;22.83;;;11.97;;
77168;SDS011;66281;45.114;20.730;2024-01-15T03:40:25;25.20;;;12.87;;
77168;SDS011;66281;45.114;20.730;2024-01-15T03:50:26;29.23;;;14.93;;
77168;SDS011;66281;45.114;20.730;2024-01-15T04:00:28;25.00;;;13.90;;
77168;SDS011;66281;45.114;20.730;2024-01-15T04:10:29;31.47;;;14.83;;
77168;SDS011;66281;45.114;20.730;2024-01-15T04:20:30;34.40;;;15.55;;
77168;SDS011;66281;45.114;20.730;2024-01-15T04:30:31;23.97;;;12.27;;
77168;SDS011;66281;45.114;20.730;2024-01-15T04:40:33;22.67;;;10.33;;
77168;SDS011;66281;45.114;20.730;2024-01-15T04:50:34;25.98;;;13.63;;
77168;SDS011;66281;45.114;20.730;2024-01-15T05:00:35;21.20;;;11.80;;
77168;SDS011;66281;45.114;20.730;2024-01-15T05:10:37;23.73;;;12.57;;
77168;SDS011;66281;45.114;20.730;2024-01-15T05:20:38;29.03;;;15.10;;
77168;SDS011;66281;45.114;20.730;2024-01-15T05:30:39;25.63;;;12.52;;
77168;SDS011;66281;45.114;20.730;2024-01-15T05:40:40;28.23;;;14.50;;
77168;SDS011;66281;45.114;20.730;2024-01-15T05:50:42;28.53;;;14.43;;
77168;SDS011;66281;45.114;20.730;2024-01-15T06:00:43;27.23;;;15.02;;
77168;SDS011;66281;45.114;20.730;2024-01-15T06:10:44;24.40;;;12.57;;
77168;SDS011;66281;45.114;20.730;2024-01-15T06:20:46;24.23;;;12.13;;
77168;SDS011;66281;45.114;20.730;2024-01-15T06:30:47;27.52;;;13.82;;
77168;SDS011;66281;45.114;20.730;2024-01-15T06:40:49;23.95;;;13.27;;
77168;SDS011;66281;45.114;20.730;2024-01-15T06:50:50;21.60;;;10.77;;
77168;SDS011;66281;45.114;20.730;2024-01-15T07:00:51;27.40;;;13.53;;
77168;SDS011;66281;45.114;20.730;2024-01-15T07:10:53;28.58;;;13.50;;
77168;SDS011;66281;45.114;20.730;2024-01-15T07:20:54;29.73;;;15.67;;
77168;SDS011;66281;45.114;20.730;2024-01-15T07:30:56;25.60;;;12.10;;
77168;SDS011;66281;45.114;20.730;2024-01-15T07:41:01;28.80;;;13.63;;
77168;SDS011;66281;45.114;20.730;2024-01-15T07:51:04;27.77;;;13.70;;
77168;SDS011;66281;45.114;20.730;2024-01-15T08:01:06;21.00;;;11.67;;
77168;SDS011;66281;45.114;20.730;2024-01-15T08:11:07;20.70;;;12.32;;
77168;SDS011;66281;45.114;20.730;2024-01-15T08:21:08;27.02;;;12.73;;
77168;SDS011;66281;45.114;20.730;2024-01-15T08:31:10;25.93;;;14.13;;
77168;SDS011;66281;45.114;20.730;2024-01-15T08:41:11;20.00;;;10.83;;
77168;SDS011;66281;45.114;20.730;2024-01-15T08:51:13;31.23;;;16.13;;
77168;SDS011;66281;45.114;20.730;2024-01-15T09:01:14;20.37;;;11.53;;
77168;SDS011;66281;45.114;20.730;2024-01-15T09:11:15;26.80;;;13.50;;
77168;SDS011;66281;45.114;20.730;2024-01-15T09:21:17;24.15;;;12.43;;
77168;SDS011;66281;45.114;20.730;2024-01-15T09:31:18;27.83;;;12.77;;
77168;SDS011;66281;45.114;20.730;2024-01-15T09:41:21;43.60;;;17.97;;
77168;SDS011;66281;45.114;20.730;2024-01-15T09:51:22;33.10;;;16.25;;
77168;SDS011;66281;45.114;20.730;2024-01-15T10:01:26;30.90;;;14.23;;
77168;SDS011;66281;45.114;20.730;2024-01-15T10:11:27;43.80;;;18.20;;
77168;SDS011;66281;45.114;20.730;2024-01-15T10:21:28;37.03;;;17.67;;
77168;SDS011;66281;45.114;20.730;2024-01-15T10:31:35;27.08;;;14.48;;
77168;SDS011;66281;45.114;20.730;2024-01-15T10:41:37;29.93;;;15.93;;
77168;SDS011;66281;45.114;20.730;2024-01-15T10:51:38;26.07;;;12.63;;
77168;SDS011;66281;45.114;20.730;2024-01-15T11:01:41;31.48;;;16.20;;
77168;SDS011;66281;45.114;20.730;2024-01-15T11:11:44;28.27;;;13.60;;
77168;SDS011;66281;45.114;20.730;2024-01-15T11:21:47;27.60;;;15.17;;
77168;SDS011;66281;45.114;20.730;2024-01-15T11:41:51;26.45;;;13.82;;
77168;SDS011;66281;45.114;20.730;2024-01-15T11:51:53;30.40;;;16.00;;
77168;SDS011;66281;45.114;20.730;2024-01-15T12:01:56;36.90;;;17.60;;
77168;SDS011;66281;45.114;20.730;2024-01-15T12:12:03;33.90;;;18.10;;
77168;SDS011;66281;45.114;20.730;2024-01-15T12:22:08;30.67;;;15.87;;
77168;SDS011;66281;45.114;20.730;2024-01-15T12:32:11;29.30;;;15.80;;
77168;SDS011;66281;45.114;20.730;2024-01-15T12:42:16;24.55;;;13.70;;
77168;SDS011;66281;45.114;20.730;2024-01-15T12:52:18;32.60;;;15.40;;
77168;SDS011;66281;45.114;20.730;2024-01-15T13:02:20;28.07;;;15.17;;
77168;SDS011;66281;45.114;20.730;2024-01-15T13:12:22;53.38;;;26.92;;
77168;SDS011;66281;45.114;20.730;2024-01-15T13:22:25;50.38;;;26.52;;
77168;SDS011;66281;45.114;20.730;2024-01-15T13:32:33;40.23;;;22.47;;
77168;SDS011;66281;45.114;20.730;2024-01-15T13:42:35;51.43;;;24.67;;
77168;SDS011;66281;45.114;20.730;2024-01-15T13:52:39;60.95;;;31.05;;
77168;SDS011;66281;45.114;20.730;2024-01-15T14:02:40;112.07;;;39.97;;
77168;SDS011;66281;45.114;20.730;2024-01-15T14:12:42;65.20;;;29.80;;
77168;SDS011;66281;45.114;20.730;2024-01-15T14:22:44;82.00;;;34.20;;
77168;SDS011;66281;45.114;20.730;2024-01-15T14:32:45;72.80;;;27.63;;
77168;SDS011;66281;45.114;20.730;2024-01-15T14:42:47;91.10;;;32.27;;
77168;SDS011;66281;45.114;20.730;2024-01-15T14:52:49;98.38;;;42.40;;
77168;SDS011;66281;45.114;20.730;2024-01-15T15:02:51;44.42;;;23.73;;
77168;SDS011;66281;45.114;20.730;2024-01-15T15:12:52;49.37;;;25.47;;
77168;SDS011;66281;45.114;20.730;2024-01-15T15:22:53;46.17;;;25.07;;
77168;SDS011;66281;45.114;20.730;2024-01-15T15:32:57;69.70;;;34.03;;
77168;SDS011;66281;45.114;20.730;2024-01-15T15:42:58;34.83;;;19.17;;
77168;SDS011;66281;45.114;20.730;2024-01-15T15:53:00;30.73;;;15.83;;
77168;SDS011;66281;45.114;20.730;2024-01-15T16:03:02;36.25;;;18.00;;
77168;SDS011;66281;45.114;20.730;2024-01-15T16:13:04;48.87;;;26.17;;
77168;SDS011;66281;45.114;20.730;2024-01-15T16:23:06;43.73;;;25.43;;
77168;SDS011;66281;45.114;20.730;2024-01-15T16:33:09;26.88;;;16.35;;
77168;SDS011;66281;45.114;20.730;2024-01-15T16:43:10;36.38;;;14.68;;
77168;SDS011;66281;45.114;20.730;2024-01-15T16:53:13;31.97;;;9.33;;
77168;SDS011;66281;45.114;20.730;2024-01-15T17:03:15;14.90;;;7.20;;
77168;SDS011;66281;45.114;20.730;2024-01-15T17:13:16;14.88;;;9.43;;
77168;SDS011;66281;45.114;20.730;2024-01-15T17:23:18;12.03;;;7.03;;
77168;SDS011;66281;45.114;20.730;2024-01-15T17:33:21;9.57;;;4.97;;
77168;SDS011;66281;45.114;20.730;2024-01-15T17:43:23;6.78;;;3.45;;
77168;SDS011;66281;45.114;20.730;2024-01-15T17:53:25;31.73;;;13.13;;
77168;SDS011;66281;45.114;20.730;2024-01-15T18:03:27;39.30;;;10.50;;
77168;SDS011;66281;45.114;20.730;2024-01-15T18:13:29;17.00;;;8.73;;
77168;SDS011;66281;45.114;20.730;2024-01-15T18:23:31;8.30;;;3.88;;
77168;SDS011;66281;45.114;20.730;2024-01-15T18:33:35;11.90;;;6.53;;
77168;SDS011;66281;45.114;20.730;2024-01-15T18:43:37;8.87;;;5.63;;
77168;SDS011;66281;45.114;20.730;2024-01-15T18:53:38;5.40;;;3.60;;
77168;SDS011;66281;45.114;20.730;2024-01-15T19:03:40;9.60;;;4.97;;
77168;SDS011;66281;45.114;20.730;2024-01-15T19:13:41;7.63;;;4.83;;
77168;SDS011;66281;45.114;20.730;2024-01-15T19:23:43;9.02;;;6.18;;
77168;SDS011;66281;45.114;20.730;2024-01-15T19:33:44;9.43;;;5.90;;
77168;SDS011;66281;45.114;20.730;2024-01-15T19:43:46;15.57;;;7.10;;
77168;SDS011;66281;45.114;20.730;2024-01-15T19:53:48;14.98;;;7.93;;
77168;SDS011;66281;45.114;20.730;2024-01-15T20:03:50;35.85;;;15.95;;
77168;SDS011;66281;45.114;20.730;2024-01-15T20:13:51;27.30;;;14.27;;
77168;SDS011;66281;45.114;20.730;2024-01-15T20:23:53;14.53;;;7.93;;
77168;SDS011;66281;45.114;20.730;2024-01-15T20:33:54;49.38;;;18.30;;
77168;SDS011;66281;45.114;20.730;2024-01-15T20:43:56;18.77;;;10.90;;
77168;SDS011;66281;45.114;20.730;2024-01-15T20:53:59;18.27;;;10.00;;
77168;SDS011;66281;45.114;20.730;2024-01-15T21:04:00;19.85;;;10.23;;
77168;SDS011;66281;45.114;20.730;2024-01-15T21:14:02;18.47;;;9.97;;
77168;SDS011;66281;45.114;20.730;2024-01-15T21:24:04;35.23;;;17.70;;
77168;SDS011;66281;45.114;20.730;2024-01-15T21:34:06;22.67;;;12.45;;
77168;SDS011;66281;45.114;20.730;2024-01-15T21:44:09;16.88;;;10.00;;
77168;SDS011;66281;45.114;20.730;2024-01-15T21:54:11;30.47;;;16.93;;
77168;SDS011;66281;45.114;20.730;2024-01-15T22:04:14;24.50;;;12.77;;
77168;SDS011;66281;45.114;20.730;2024-01-15T22:14:15;17.95;;;9.38;;
77168;SDS011;66281;45.114;20.730;2024-01-15T22:24:16;19.27;;;9.57;;
77168;SDS011;66281;45.114;20.730;2024-01-15T22:34:18;35.00;;;15.83;;
77168;SDS011;66281;45.114;20.730;2024-01-15T22:44:19;26.67;;;12.10;;
77168;SDS011;66281;45.114;20.730;2024-01-15T22:54:21;32.43;;;15.70;;
77168;SDS011;66281;45.114;20.730;2024-01-15T23:04:23;129.37;;;55.23;;
77168;SDS011;66281;45.114;20.730;2024-01-15T23:14:24;358.20;;;124.75;;
77168;SDS011;66281;45.114;20.730;2024-01-15T23:24:25;123.45;;;48.42;;
77168;SDS011;66281;45.114;20.730;2024-01-15T23:34:26;85.60;;;33.37;;
77168;SDS011;66281;45.114;20.730;2024-01-15T23:44:28;47.13;;;19.83;;
77168;SDS011;66281;45.114;20.730;2024-01-15T23:54:29;28.05;;;12.85;;
